Thunder radar more information blitzortung!


Radar de pluja more information rain snow radar


Visita la nostra xarxa de llocs de meteo:

Template documentation
and downloads

And another site



No particular awareness of the weather is required.    There are no Weather-warnings

Pagina Historial Weather Underground text

Diari Resum May 11, 2017 Unitats:  Mètric    Imperial   Tant
« Previous Dia
SegĂźent Dia »
Diari Setmana Mensual Anual Personalitzada
  Maxima: Minima: Media:
Temperatura: 20.5 °C 12.3 °C 15.6 °C
Punt de rosada: 15.7 °C 9.8 °C 12.6 °C
Humitat: 88 % 69 % 83 %
Wind Speed: 9.7 km/h 0.0 km/h 4.1 km/h
RĂ fegues de vent: 9.7 km/h - -
Vent:- - SE
Pression baro: 1003.9 hPa 999.9 hPa -
Precipitacions: 14.0 mm    
Historical Graphs
 
 
Dades de taula per May 11, 2017
Temps Temperatura Punt de rosada Pression baro Vent Wind Speed RĂ fegues de vent Humitat Rainfall Rate (Hourly)
00:00 14.8 °C 11.6 °C 1001.9 hPa NE 4.8 km/h 8.0 km/h 81 % 0.0 mm
00:02 15.8 °C 12.2 °C 1003.9 hPa NE 7.4 km/h 7.4 km/h 79 % 0.0 mm
00:07 15.7 °C 12.3 °C 1003.9 hPa ENE 9.7 km/h 9.7 km/h 80 % 0.0 mm
00:10 14.8 °C 11.6 °C 1001.9 hPa NE 4.8 km/h 6.4 km/h 81 % 0.0 mm
00:20 14.7 °C 11.4 °C 1001.9 hPa NE 4.8 km/h 6.4 km/h 81 % 0.0 mm
00:30 14.7 °C 11.4 °C 1001.9 hPa NE 4.8 km/h 6.4 km/h 81 % 0.0 mm
00:40 14.8 °C 11.6 °C 1001.9 hPa NE 3.2 km/h 6.4 km/h 81 % 0.0 mm
00:50 14.8 °C 11.6 °C 1000.9 hPa NE 3.2 km/h 6.4 km/h 81 % 0.0 mm
01:00 14.8 °C 11.6 °C 1000.9 hPa NE 1.6 km/h 3.2 km/h 81 % 0.0 mm
01:10 14.8 °C 11.4 °C 1000.9 hPa NE 1.6 km/h 4.8 km/h 80 % 0.0 mm
01:20 14.8 °C 11.4 °C 1000.9 hPa NE 4.8 km/h 4.8 km/h 80 % 0.0 mm
01:30 14.7 °C 11.3 °C 1000.9 hPa NE 3.2 km/h 4.8 km/h 80 % 0.0 mm
01:40 14.8 °C 11.4 °C 999.9 hPa NE 3.2 km/h 4.8 km/h 80 % 0.0 mm
01:50 14.8 °C 11.6 °C 999.9 hPa ENE 3.2 km/h 8.0 km/h 81 % 0.0 mm
02:00 14.7 °C 11.4 °C 999.9 hPa East 4.8 km/h 6.4 km/h 81 % 0.0 mm
02:10 14.8 °C 11.6 °C 999.9 hPa East 3.2 km/h 9.7 km/h 81 % 0.0 mm
02:20 14.7 °C 11.4 °C 999.9 hPa East 3.2 km/h 9.7 km/h 81 % 0.0 mm
02:30 14.7 °C 11.4 °C 999.9 hPa East 3.2 km/h 4.8 km/h 81 % 0.0 mm
02:40 14.7 °C 11.4 °C 999.9 hPa East 3.2 km/h 9.7 km/h 81 % 0.0 mm
02:50 14.7 °C 11.4 °C 999.9 hPa East 4.8 km/h 9.7 km/h 81 % 0.0 mm
03:00 14.7 °C 11.4 °C 999.9 hPa ENE 1.6 km/h 6.4 km/h 81 % 0.0 mm
03:10 14.6 °C 11.4 °C 999.9 hPa ENE 4.8 km/h 6.4 km/h 81 % 0.0 mm
03:20 14.6 °C 11.7 °C 999.9 hPa NE 3.2 km/h 6.4 km/h 83 % 0.0 mm
03:30 14.4 °C 11.6 °C 999.9 hPa ENE 1.6 km/h 4.8 km/h 83 % 0.0 mm
03:40 14.4 °C 11.7 °C 1000.9 hPa East 1.6 km/h 4.8 km/h 84 % 0.0 mm
03:50 14.3 °C 11.6 °C 999.9 hPa ENE 4.8 km/h 4.8 km/h 84 % 0.0 mm
04:00 14.4 °C 11.9 °C 999.9 hPa NE 4.8 km/h 4.8 km/h 85 % 0.0 mm
04:10 14.5 °C 12.2 °C 999.9 hPa NNE 1.6 km/h 4.8 km/h 86 % 0.0 mm
04:20 14.4 °C 12.1 °C 999.9 hPa NE 3.2 km/h 4.8 km/h 86 % 0.0 mm
04:30 14.5 °C 12.2 °C 999.9 hPa Calm   3.2 km/h 86 % 0.0 mm
04:40 14.4 °C 12.1 °C 1000.9 hPa Calm   3.2 km/h 86 % 2.0 mm
09:47 14.3 °C 12.2 °C 1000.9 hPa Calm   3.9 km/h 87 % 4.1 mm
09:52 14.3 °C 12.3 °C 1000.9 hPa Calm     88 % 5.3 mm
09:57 14.2 °C 12.2 °C 999.9 hPa ENE 5.6 km/h 5.6 km/h 88 % 5.3 mm
10:02 14.2 °C 12.2 °C 999.9 hPa ENE 5.6 km/h 5.6 km/h 88 % 5.3 mm
10:03 14.2 °C 12.2 °C 999.9 hPa ENE 5.6 km/h 5.6 km/h 88 % 5.3 mm
10:08 14.2 °C 12.2 °C 999.9 hPa ENE 5.6 km/h 5.6 km/h 88 % 5.3 mm
10:13 14.2 °C 12.2 °C 999.9 hPa ENE 5.6 km/h 5.6 km/h 88 % 5.3 mm
10:18 14.2 °C 12.2 °C 999.9 hPa ENE 5.6 km/h 5.6 km/h 88 % 5.3 mm
10:23 14.2 °C 12.2 °C 999.9 hPa ENE 5.6 km/h 5.6 km/h 88 % 5.3 mm
10:28 14.2 °C 12.2 °C 999.9 hPa ENE 5.6 km/h 5.6 km/h 88 % 5.3 mm
10:33 14.2 °C 12.2 °C 999.9 hPa ENE 5.6 km/h 5.6 km/h 88 % 5.3 mm
10:38 14.2 °C 12.2 °C 999.9 hPa ENE 5.6 km/h 5.6 km/h 88 % 5.3 mm
10:43 14.2 °C 12.2 °C 999.9 hPa ENE 5.6 km/h 5.6 km/h 88 % 3.3 mm
10:48 14.2 °C 12.2 °C 999.9 hPa ENE 5.6 km/h 5.6 km/h 88 % 1.3 mm
10:53 14.2 °C 12.2 °C 999.9 hPa ENE 5.6 km/h 5.6 km/h 88 % 0.0 mm
10:58 14.2 °C 12.2 °C 999.9 hPa ENE 5.6 km/h 5.6 km/h 88 % 0.0 mm
11:03 14.2 °C 12.2 °C 999.9 hPa ENE 5.6 km/h 5.6 km/h 88 % 0.0 mm
11:08 14.2 °C 12.2 °C 999.9 hPa ENE 5.6 km/h 5.6 km/h 88 % 0.0 mm
11:13 14.2 °C 12.2 °C 999.9 hPa ENE 5.6 km/h 5.6 km/h 88 % 0.0 mm
11:18 14.2 °C 12.2 °C 999.9 hPa ENE 5.6 km/h 5.6 km/h 88 % 0.0 mm
11:23 14.2 °C 12.2 °C 999.9 hPa ENE 5.6 km/h 5.6 km/h 88 % 0.0 mm
11:28 14.2 °C 12.2 °C 999.9 hPa ENE 5.6 km/h 5.6 km/h 88 % 0.0 mm
11:33 14.2 °C 12.2 °C 999.9 hPa ENE 5.6 km/h 5.6 km/h 88 % 0.0 mm
11:38 14.2 °C 12.2 °C 999.9 hPa ENE 5.6 km/h 5.6 km/h 88 % 0.0 mm
11:43 14.2 °C 12.2 °C 999.9 hPa ENE 5.6 km/h 5.6 km/h 88 % 0.0 mm
11:48 14.2 °C 12.2 °C 999.9 hPa ENE 5.6 km/h 5.6 km/h 88 % 0.0 mm
11:53 14.2 °C 12.2 °C 999.9 hPa ENE 5.6 km/h 5.6 km/h 88 % 0.0 mm
11:58 14.2 °C 12.2 °C 999.9 hPa ENE 5.6 km/h 5.6 km/h 88 % 0.0 mm
12:03 14.2 °C 12.2 °C 999.9 hPa ENE 5.6 km/h 5.6 km/h 88 % 0.0 mm
12:08 14.2 °C 12.2 °C 999.9 hPa ENE 5.6 km/h 5.6 km/h 88 % 0.0 mm
12:13 14.2 °C 12.2 °C 999.9 hPa ENE 5.6 km/h 5.6 km/h 88 % 0.0 mm
12:18 14.2 °C 12.2 °C 999.9 hPa ENE 5.6 km/h 5.6 km/h 88 % 0.0 mm
12:23 14.2 °C 12.2 °C 999.9 hPa ENE 5.6 km/h 5.6 km/h 88 % 0.0 mm
12:28 14.2 °C 12.2 °C 999.9 hPa ENE 5.6 km/h 5.6 km/h 88 % 0.0 mm
12:29 14.2 °C 12.2 °C 999.9 hPa ENE 5.6 km/h 5.6 km/h 88 % 0.0 mm
12:34 14.2 °C 12.2 °C 999.9 hPa ENE 5.6 km/h 5.6 km/h 88 % 0.0 mm
12:39 14.2 °C 12.2 °C 999.9 hPa ENE 5.6 km/h 5.6 km/h 88 % 0.0 mm
12:44 14.2 °C 12.2 °C 999.9 hPa ENE 5.6 km/h 5.6 km/h 88 % 0.0 mm
12:49 14.2 °C 12.2 °C 999.9 hPa ENE 5.6 km/h 5.6 km/h 88 % 0.0 mm
12:54 14.2 °C 12.2 °C 999.9 hPa ENE 5.6 km/h 5.6 km/h 88 % 0.0 mm
12:59 14.2 °C 12.2 °C 999.9 hPa ENE 5.6 km/h 5.6 km/h 88 % 0.0 mm
13:04 14.2 °C 12.2 °C 999.9 hPa ENE 5.6 km/h 5.6 km/h 88 % 0.0 mm
13:09 14.2 °C 12.2 °C 999.9 hPa ENE 5.6 km/h 5.6 km/h 88 % 0.0 mm
13:14 14.2 °C 12.2 °C 999.9 hPa ENE 5.6 km/h 5.6 km/h 88 % 0.0 mm
13:19 14.2 °C 12.2 °C 999.9 hPa ENE 5.6 km/h 5.6 km/h 88 % 0.0 mm
13:24 14.2 °C 12.2 °C 999.9 hPa ENE 5.6 km/h 5.6 km/h 88 % 0.0 mm
13:29 14.2 °C 12.2 °C 999.9 hPa ENE 5.6 km/h 5.6 km/h 88 % 0.0 mm
13:34 14.2 °C 12.2 °C 999.9 hPa ENE 5.6 km/h 5.6 km/h 88 % 0.0 mm
13:39 14.2 °C 12.2 °C 999.9 hPa ENE 5.6 km/h 5.6 km/h 88 % 0.0 mm
13:44 14.2 °C 12.2 °C 999.9 hPa ENE 5.6 km/h 5.6 km/h 88 % 0.0 mm
13:49 14.2 °C 12.2 °C 999.9 hPa ENE 5.6 km/h 5.6 km/h 88 % 0.0 mm
13:54 14.2 °C 12.2 °C 999.9 hPa ENE 5.6 km/h 5.6 km/h 88 % 0.0 mm
13:59 14.2 °C 12.2 °C 999.9 hPa ENE 5.6 km/h 5.6 km/h 88 % 0.0 mm
14:04 14.2 °C 12.2 °C 999.9 hPa ENE 5.6 km/h 5.6 km/h 88 % 0.0 mm
14:09 14.2 °C 12.2 °C 999.9 hPa ENE 5.6 km/h 5.6 km/h 88 % 0.0 mm
14:14 14.2 °C 12.2 °C 999.9 hPa ENE 5.6 km/h 5.6 km/h 88 % 0.0 mm
14:19 14.2 °C 12.2 °C 999.9 hPa ENE 5.6 km/h 5.6 km/h 88 % 0.0 mm
14:24 14.2 °C 12.2 °C 999.9 hPa ENE 5.6 km/h 5.6 km/h 88 % 0.0 mm
14:29 14.2 °C 12.2 °C 999.9 hPa ENE 5.6 km/h 5.6 km/h 88 % 0.0 mm
14:34 14.2 °C 12.2 °C 999.9 hPa ENE 5.6 km/h 5.6 km/h 88 % 0.0 mm
14:39 14.2 °C 12.2 °C 999.9 hPa ENE 5.6 km/h 5.6 km/h 88 % 0.0 mm
14:44 14.2 °C 12.2 °C 999.9 hPa ENE 5.6 km/h 5.6 km/h 88 % 0.0 mm
14:49 14.2 °C 12.2 °C 999.9 hPa ENE 5.6 km/h 5.6 km/h 88 % 0.0 mm
14:54 14.2 °C 12.2 °C 999.9 hPa ENE 5.6 km/h 5.6 km/h 88 % 0.0 mm
14:59 14.2 °C 12.2 °C 999.9 hPa ENE 5.6 km/h 5.6 km/h 88 % 0.0 mm
15:04 14.2 °C 12.2 °C 999.9 hPa ENE 5.6 km/h 5.6 km/h 88 % 0.0 mm
15:09 14.2 °C 12.2 °C 999.9 hPa ENE 5.6 km/h 5.6 km/h 88 % 0.0 mm
15:14 14.2 °C 12.2 °C 999.9 hPa ENE 5.6 km/h 5.6 km/h 88 % 0.0 mm
15:19 14.2 °C 12.2 °C 999.9 hPa ENE 5.6 km/h 5.6 km/h 88 % 0.0 mm
15:24 14.2 °C 12.2 °C 999.9 hPa ENE 5.6 km/h 5.6 km/h 88 % 0.0 mm
15:29 14.2 °C 12.2 °C 999.9 hPa ENE 5.6 km/h 5.6 km/h 88 % 0.0 mm
15:34 14.2 °C 12.2 °C 999.9 hPa ENE 5.6 km/h 5.6 km/h 88 % 0.0 mm
15:39 14.2 °C 12.2 °C 999.9 hPa ENE 5.6 km/h 5.6 km/h 88 % 0.0 mm
15:44 14.2 °C 12.2 °C 999.9 hPa ENE 5.6 km/h 5.6 km/h 88 % 0.0 mm
15:49 14.2 °C 12.2 °C 999.9 hPa ENE 5.6 km/h 5.6 km/h 88 % 0.0 mm
15:54 14.2 °C 12.2 °C 999.9 hPa ENE 5.6 km/h 5.6 km/h 88 % 0.0 mm
15:59 14.2 °C 12.2 °C 999.9 hPa ENE 5.6 km/h 5.6 km/h 88 % 0.0 mm
16:04 14.2 °C 12.2 °C 999.9 hPa ENE 5.6 km/h 5.6 km/h 88 % 0.0 mm
16:09 14.2 °C 12.2 °C 999.9 hPa ENE 5.6 km/h 5.6 km/h 88 % 0.0 mm
16:14 14.2 °C 12.2 °C 999.9 hPa ENE 5.6 km/h 5.6 km/h 88 % 0.0 mm
16:20 14.8 °C 11.9 °C 1000.9 hPa NE 5.6 km/h 5.6 km/h 83 % 0.0 mm
16:25 15.0 °C 12.3 °C 1000.9 hPa ESE 5.6 km/h 5.6 km/h 84 % 0.0 mm
16:30 15.0 °C 12.3 °C 1000.9 hPa NNE 3.7 km/h 3.7 km/h 84 % 8.6 mm
16:35 15.1 °C 12.4 °C 1000.9 hPa ESE 3.7 km/h 3.7 km/h 84 % 8.6 mm
16:40 15.7 °C 13.2 °C 1001.9 hPa South 2.6 km/h   85 % 8.6 mm
16:45 16.2 °C 13.5 °C 1001.9 hPa South 5.6 km/h 5.6 km/h 84 % 8.6 mm
16:50 16.4 °C 13.7 °C 1001.9 hPa WSW 3.7 km/h 3.9 km/h 84 % 8.6 mm
16:55 16.6 °C 13.7 °C 1001.9 hPa WSW 1.9 km/h 1.9 km/h 83 % 8.6 mm
17:00 16.8 °C 14.1 °C 1001.9 hPa Calm     84 % 8.6 mm
17:05 16.8 °C 14.1 °C 1001.9 hPa SSE 1.9 km/h   84 % 8.6 mm
17:10 16.9 °C 14.0 °C 1001.9 hPa SW 3.7 km/h 3.7 km/h 83 % 8.6 mm
17:15 17.0 °C 14.3 °C 1001.9 hPa South 3.7 km/h 3.7 km/h 84 % 8.6 mm
17:20 17.1 °C 14.4 °C 1001.9 hPa SSW 1.9 km/h   84 % 8.6 mm
17:25 17.2 °C 14.4 °C 1001.9 hPa SW 3.9 km/h 3.9 km/h 84 % 8.6 mm
17:30 17.3 °C 14.4 °C 1001.9 hPa SW 5.6 km/h 5.6 km/h 83 % 0.0 mm
17:35 17.9 °C 15.2 °C 1001.9 hPa SW 3.7 km/h 3.7 km/h 84 % 0.0 mm
17:40 18.3 °C 15.2 °C 1000.9 hPa SW 9.3 km/h 9.3 km/h 82 % 0.0 mm
17:45 18.6 °C 15.7 °C 1000.9 hPa West 3.7 km/h 3.7 km/h 83 % 0.0 mm
17:50 18.8 °C 15.4 °C 1000.9 hPa South 7.4 km/h 7.4 km/h 81 % 0.0 mm
17:55 19.2 °C 15.7 °C 1000.9 hPa SW 5.6 km/h 5.6 km/h 80 % 0.0 mm
18:00 19.3 °C 15.6 °C 1000.9 hPa WNW 5.0 km/h 5.0 km/h 79 % 0.0 mm
18:05 19.4 °C 15.4 °C 1000.9 hPa SSE 3.7 km/h 3.7 km/h 78 % 0.0 mm
18:10 19.4 °C 15.3 °C 1000.9 hPa SE 1.9 km/h   77 % 0.0 mm
18:15 19.7 °C 15.6 °C 1000.9 hPa West 3.7 km/h 3.7 km/h 77 % 0.0 mm
18:20 19.6 °C 15.3 °C 1000.9 hPa WNW 3.7 km/h 3.7 km/h 76 % 0.0 mm
18:25 19.7 °C 15.2 °C 1000.9 hPa NNW 1.9 km/h   75 % 0.0 mm
18:30 20.0 °C 15.2 °C 1000.9 hPa West 2.6 km/h   74 % 0.0 mm
18:35 20.1 °C 14.9 °C 1000.9 hPa West 2.3 km/h 2.3 km/h 72 % 0.0 mm
18:40 20.5 °C 15.3 °C 999.9 hPa WSW 3.9 km/h   72 % 0.0 mm
18:45 20.4 °C 14.9 °C 999.9 hPa NW 1.9 km/h 1.9 km/h 71 % 0.0 mm
18:50 20.2 °C 14.6 °C 999.9 hPa NW 2.6 km/h   70 % 0.0 mm
18:55 20.1 °C 14.4 °C 1000.9 hPa NNE 3.9 km/h 3.9 km/h 70 % 0.0 mm
19:00 19.8 °C 14.4 °C 1000.9 hPa NE 5.6 km/h 5.6 km/h 71 % 0.0 mm
19:05 19.6 °C 14.2 °C 1000.9 hPa NNE 3.7 km/h 3.7 km/h 71 % 0.0 mm
19:10 19.5 °C 14.1 °C 1000.9 hPa NE 3.7 km/h 3.7 km/h 71 % 0.0 mm
19:15 19.5 °C 13.9 °C 1000.9 hPa NE 1.9 km/h 1.9 km/h 70 % 0.0 mm
19:20 19.7 °C 14.3 °C 1000.9 hPa NW 1.9 km/h   71 % 0.0 mm
19:25 19.7 °C 14.1 °C 999.9 hPa ENE 1.9 km/h 1.9 km/h 70 % 0.0 mm
19:30 19.6 °C 13.8 °C 999.9 hPa ESE 5.3 km/h   69 % 0.0 mm
19:31 19.6 °C 13.8 °C 999.9 hPa ESE 5.6 km/h 5.6 km/h 69 % 0.0 mm
19:35 15.0 °C 11.9 °C 1002.9 hPa NE 3.2 km/h 4.8 km/h 82 % 0.0 mm
19:36 19.5 °C 13.9 °C 999.9 hPa NNE 3.7 km/h 3.7 km/h 70 % 0.0 mm
19:41 19.5 °C 13.7 °C 1000.9 hPa NNE 1.9 km/h 1.9 km/h 69 % 0.0 mm
19:45 15.0 °C 12.1 °C 1002.9 hPa NNE 1.6 km/h 3.2 km/h 83 % 0.0 mm
19:46 19.6 °C 14.0 °C 1000.9 hPa West 1.9 km/h 1.9 km/h 70 % 0.0 mm
19:51 19.6 °C 13.8 °C 1000.9 hPa ESE 5.6 km/h 5.6 km/h 69 % 0.0 mm
19:55 15.0 °C 12.3 °C 1003.9 hPa Calm   1.6 km/h 84 % 0.0 mm
19:56 19.4 °C 13.8 °C 1000.9 hPa East 5.6 km/h 5.6 km/h 70 % 0.0 mm
20:01 19.3 °C 13.7 °C 1000.9 hPa SE 3.7 km/h 3.7 km/h 70 % 0.0 mm
20:05 14.6 °C 11.7 °C 1003.9 hPa WNW 1.6 km/h 3.2 km/h 83 % 0.0 mm
20:06 19.3 °C 13.9 °C 1000.9 hPa SW 3.9 km/h   71 % 0.0 mm
20:11 19.3 °C 14.1 °C 1000.9 hPa SW 9.3 km/h 9.3 km/h 72 % 0.0 mm
20:15 14.7 °C 12.0 °C 1003.9 hPa WSW 1.6 km/h 3.2 km/h 84 % 0.0 mm
20:16 19.2 °C 14.1 °C 1000.9 hPa South 3.7 km/h 3.7 km/h 72 % 0.0 mm
20:21 19.1 °C 13.9 °C 1000.9 hPa SW 7.9 km/h 7.9 km/h 72 % 0.0 mm
20:25 14.7 °C 12.0 °C 1002.9 hPa WSW 1.6 km/h 3.2 km/h 84 % 0.0 mm
20:26 19.0 °C 13.8 °C 1000.9 hPa SW 5.6 km/h 5.6 km/h 72 % 0.0 mm
20:31 18.8 °C 14.1 °C 1000.9 hPa SW 5.3 km/h 5.3 km/h 74 % 0.0 mm
20:35 14.1 °C 11.4 °C 1003.9 hPa WSW 3.2 km/h 4.8 km/h 84 % 0.0 mm
20:36 18.6 °C 13.9 °C 1000.9 hPa SSW 3.7 km/h 3.7 km/h 74 % 0.0 mm
20:41 18.3 °C 13.6 °C 1001.9 hPa WSW 4.2 km/h 4.2 km/h 74 % 0.0 mm
20:45 14.0 °C 11.3 °C 1003.9 hPa SW 3.2 km/h 4.8 km/h 84 % 0.0 mm
20:46 18.2 °C 13.7 °C 1001.9 hPa Calm     75 % 0.0 mm
20:51 18.0 °C 13.5 °C 1001.9 hPa West 1.9 km/h 1.9 km/h 75 % 0.0 mm
20:55 13.9 °C 11.4 °C 1003.9 hPa SW 3.2 km/h 4.8 km/h 85 % 0.0 mm
20:56 17.8 °C 13.3 °C 1001.9 hPa WNW 2.3 km/h 2.3 km/h 75 % 0.0 mm
21:01 17.7 °C 13.2 °C 1001.9 hPa West 3.7 km/h 3.7 km/h 75 % 0.0 mm
21:05 14.1 °C 11.8 °C 1002.9 hPa SW 1.6 km/h 3.2 km/h 86 % 0.0 mm
21:06 17.6 °C 13.1 °C 1001.9 hPa West 3.7 km/h 3.7 km/h 75 % 0.0 mm
21:11 17.6 °C 13.1 °C 1001.9 hPa WSW 3.9 km/h 3.9 km/h 75 % 0.0 mm
21:15 14.1 °C 11.8 °C 1002.9 hPa WSW 1.6 km/h 3.2 km/h 86 % 0.0 mm
21:16 17.5 °C 13.0 °C 1001.9 hPa West 5.6 km/h 5.6 km/h 75 % 0.0 mm
21:21 17.4 °C 13.1 °C 1001.9 hPa West 5.6 km/h 5.6 km/h 76 % 0.0 mm
21:25 13.9 °C 11.8 °C 1002.9 hPa Calm   3.2 km/h 87 % 0.0 mm
21:26 17.3 °C 13.0 °C 1000.9 hPa WSW 4.2 km/h 4.2 km/h 76 % 0.0 mm
21:31 17.1 °C 12.8 °C 1000.9 hPa WSW 3.7 km/h 3.7 km/h 76 % 0.0 mm
21:35 13.8 °C 11.7 °C 1002.9 hPa ENE 1.6 km/h 3.2 km/h 87 % 0.0 mm
21:36 16.9 °C 13.1 °C 1000.9 hPa WSW 5.6 km/h 5.6 km/h 78 % 0.0 mm
21:41 16.8 °C 12.9 °C 1001.9 hPa West 5.6 km/h 5.6 km/h 78 % 0.0 mm
21:45 13.6 °C 11.3 °C 1002.9 hPa SW 3.2 km/h 3.2 km/h 86 % 0.0 mm
21:46 16.7 °C 12.8 °C 1001.9 hPa SW 3.7 km/h 3.7 km/h 78 % 0.0 mm
21:51 16.7 °C 13.1 °C 1001.9 hPa Calm     79 % 0.0 mm
21:55 13.5 °C 11.2 °C 1002.9 hPa SW 3.2 km/h 3.2 km/h 86 % 0.0 mm
21:56 16.6 °C 12.9 °C 1001.9 hPa West 1.9 km/h   79 % 0.0 mm
22:01 16.5 °C 12.8 °C 1001.9 hPa WNW 3.7 km/h 3.7 km/h 79 % 0.0 mm
22:05 13.4 °C 11.1 °C 1002.9 hPa WSW 1.6 km/h 4.8 km/h 86 % 0.0 mm
22:06 16.5 °C 12.8 °C 1001.9 hPa West 3.7 km/h 3.7 km/h 79 % 0.0 mm
22:11 16.5 °C 12.8 °C 1001.9 hPa West 3.7 km/h 3.7 km/h 79 % 0.0 mm
22:15 13.5 °C 11.4 °C 1002.9 hPa WSW 1.6 km/h 3.2 km/h 87 % 0.0 mm
22:16 16.5 °C 12.8 °C 1001.9 hPa West 1.9 km/h   79 % 0.0 mm
22:21 16.4 °C 12.7 °C 1001.9 hPa NW 1.9 km/h   79 % 0.0 mm
22:25 13.6 °C 11.3 °C 1003.9 hPa WSW 3.2 km/h 3.2 km/h 86 % 0.0 mm
22:26 16.5 °C 12.8 °C 1001.9 hPa Calm     79 % 0.0 mm
22:31 16.4 °C 12.9 °C 1001.9 hPa Calm     80 % 0.0 mm
22:35 13.5 °C 11.2 °C 1002.9 hPa WSW 1.6 km/h 3.2 km/h 86 % 0.0 mm
22:36 16.4 °C 12.9 °C 1001.9 hPa NW 1.9 km/h   80 % 0.0 mm
22:41 16.3 °C 12.8 °C 1002.9 hPa Calm     80 % 0.0 mm
22:45 13.3 °C 11.0 °C 1002.9 hPa West 3.2 km/h 3.2 km/h 86 % 0.0 mm
22:46 16.3 °C 12.7 °C 1002.9 hPa WNW 3.7 km/h 3.7 km/h 79 % 0.0 mm
22:51 16.3 °C 12.8 °C 1002.9 hPa West 1.9 km/h   80 % 0.0 mm
22:55 13.3 °C 11.0 °C 1002.9 hPa WSW 1.6 km/h 3.2 km/h 86 % 0.0 mm
22:56 16.2 °C 12.7 °C 1002.9 hPa WNW 1.9 km/h   80 % 0.0 mm
23:01 16.2 °C 12.7 °C 1002.9 hPa WNW 1.9 km/h 1.9 km/h 80 % 0.0 mm
23:05 13.2 °C 11.1 °C 1002.9 hPa WSW 1.6 km/h 1.6 km/h 87 % 0.0 mm
23:06 16.2 °C 12.9 °C 1002.9 hPa WNW 3.7 km/h 3.7 km/h 81 % 0.0 mm
23:11 16.2 °C 12.9 °C 1002.9 hPa West 5.6 km/h 5.6 km/h 81 % 0.0 mm
23:15 12.8 °C 10.3 °C 1002.9 hPa SW 3.2 km/h 4.8 km/h 85 % 0.0 mm
23:16 16.2 °C 12.9 °C 1002.9 hPa West 3.7 km/h 3.7 km/h 81 % 0.0 mm
23:21 16.2 °C 12.9 °C 1002.9 hPa West 3.9 km/h 3.9 km/h 81 % 0.0 mm
23:25 12.7 °C 10.2 °C 1002.9 hPa Calm   3.2 km/h 85 % 0.0 mm
23:26 16.3 °C 13.1 °C 1002.9 hPa West 3.7 km/h 3.7 km/h 81 % 0.0 mm
23:31 16.2 °C 12.9 °C 1002.9 hPa West 4.7 km/h 4.7 km/h 81 % 0.0 mm
23:35 12.6 °C 10.2 °C 1003.9 hPa West 1.6 km/h 3.2 km/h 85 % 0.0 mm
23:36 16.3 °C 13.1 °C 1002.9 hPa WSW 7.4 km/h 7.4 km/h 81 % 0.0 mm
23:41 16.2 °C 12.9 °C 1002.9 hPa WSW 4.2 km/h 4.2 km/h 81 % 0.0 mm
23:45 12.3 °C 9.8 °C 1003.9 hPa WSW 3.2 km/h 4.8 km/h 85 % 0.0 mm
23:46 16.1 °C 12.8 °C 1002.9 hPa WSW 3.9 km/h 3.9 km/h 81 % 0.0 mm
23:51 15.9 °C 12.8 °C 1002.9 hPa SW 3.7 km/h 3.7 km/h 82 % 0.0 mm
23:55 12.3 °C 9.8 °C 1002.9 hPa WSW 3.2 km/h 3.2 km/h 85 % 0.0 mm
23:56 15.8 °C 12.6 °C 1002.9 hPa WSW 5.6 km/h 5.6 km/h 81 % 0.0 mm
Meteo Sesrovires
Elogis d' Weather Underground - 3.75 mb

Guio original per  Jim McMurry - jmcmurry@mwt.net Adaptat per a la plantilla per  Wim van der Kuil - Leuven-Template.eu

Trobareu la nostra informacio del temps tambe a:

Weather Underground

AWEKAS